Eaton, New Hampshire
Current Conditions -  °F | °C
As of 6:01 PM on Monday 24 Nov 2014 (Local Time) from KIZG Reporting Station
Haze Haze  
Wind Chill: 45°   Ceiling: 4200
Heat Index: 48°   Visibility: 3mi
Dew Point: 47°   Wind: 6mph
Humidity: 96%   Direction: NA
Pressure: 29.51"   Gusts: NA
Location:  43.9094°N, 71.0845°W
Report Text: KIZG 242301Z AUTO VRB05KT 3SM BR SCT001 BKN042 09/08 A2951 RMK AO2 T00890083
Loading
Personal Weather Stations






























Interactive Weather Map New forecast layout! Learn more

10-Day Weather Forecast

Advertisements
Track Severe Weather on mobile